sensor_id;sensor_type;location;lat;lon;timestamp;pressure;altitude;pressure_sealevel;temperature
20848;BMP180;10584;50.854;12.902;2022-09-09T00:04:31;97736.00;;;12.90
20848;BMP180;10584;50.854;12.902;2022-09-09T00:09:46;97731.00;;;13.00
20848;BMP180;10584;50.854;12.902;2022-09-09T00:15:18;97730.00;;;13.00
20848;BMP180;10584;50.854;12.902;2022-09-09T00:25:34;97716.00;;;12.90
20848;BMP180;10584;50.854;12.902;2022-09-09T00:30:40;97718.00;;;12.90
20848;BMP180;10584;50.854;12.902;2022-09-09T00:36:12;97720.00;;;12.90
20848;BMP180;10584;50.854;12.902;2022-09-09T00:57:33;97713.00;;;12.70
20848;BMP180;10584;50.854;12.902;2022-09-09T01:02:56;97721.00;;;12.60
20848;BMP180;10584;50.854;12.902;2022-09-09T01:13:36;97715.00;;;12.50
20848;BMP180;10584;50.854;12.902;2022-09-09T01:18:51;97723.00;;;12.40
20848;BMP180;10584;50.854;12.902;2022-09-09T01:29:27;97718.00;;;12.30
20848;BMP180;10584;50.854;12.902;2022-09-09T01:34:36;97717.00;;;12.30
20848;BMP180;10584;50.854;12.902;2022-09-09T01:39:44;97710.00;;;12.30
20848;BMP180;10584;50.854;12.902;2022-09-09T01:44:51;97706.00;;;12.20
20848;BMP180;10584;50.854;12.902;2022-09-09T01:49:53;97712.00;;;12.20
20848;BMP180;10584;50.854;12.902;2022-09-09T01:55:00;97704.00;;;12.10
20848;BMP180;10584;50.854;12.902;2022-09-09T02:00:14;97703.00;;;12.10
20848;BMP180;10584;50.854;12.902;2022-09-09T02:06:05;97703.00;;;12.10
20848;BMP180;10584;50.854;12.902;2022-09-09T02:11:15;97706.00;;;12.00
20848;BMP180;10584;50.854;12.902;2022-09-09T02:22:32;97711.00;;;11.90
20848;BMP180;10584;50.854;12.902;2022-09-09T02:27:37;97702.00;;;11.90
20848;BMP180;10584;50.854;12.902;2022-09-09T02:32:43;97709.00;;;11.90
20848;BMP180;10584;50.854;12.902;2022-09-09T02:37:51;97706.00;;;11.90
20848;BMP180;10584;50.854;12.902;2022-09-09T02:42:55;97704.00;;;11.80
20848;BMP180;10584;50.854;12.902;2022-09-09T02:54:10;97698.00;;;11.80
20848;BMP180;10584;50.854;12.902;2022-09-09T02:59:13;97691.00;;;11.80
20848;BMP180;10584;50.854;12.902;2022-09-09T03:04:16;97690.00;;;11.70
20848;BMP180;10584;50.854;12.902;2022-09-09T03:09:19;97690.00;;;11.70
20848;BMP180;10584;50.854;12.902;2022-09-09T03:14:24;97686.00;;;11.60
20848;BMP180;10584;50.854;12.902;2022-09-09T03:19:28;97694.00;;;11.60
20848;BMP180;10584;50.854;12.902;2022-09-09T03:24:32;97689.00;;;11.70
20848;BMP180;10584;50.854;12.902;2022-09-09T03:29:38;97697.00;;;11.70
20848;BMP180;10584;50.854;12.902;2022-09-09T03:34:44;97693.00;;;11.70
20848;BMP180;10584;50.854;12.902;2022-09-09T03:39:53;97691.00;;;11.80
20848;BMP180;10584;50.854;12.902;2022-09-09T03:44:58;97694.00;;;11.90
20848;BMP180;10584;50.854;12.902;2022-09-09T03:50:03;97694.00;;;12.00
20848;BMP180;10584;50.854;12.902;2022-09-09T03:55:08;97695.00;;;12.00
20848;BMP180;10584;50.854;12.902;2022-09-09T04:00:12;97696.00;;;12.10
20848;BMP180;10584;50.854;12.902;2022-09-09T04:05:19;97697.00;;;12.00
20848;BMP180;10584;50.854;12.902;2022-09-09T04:10:24;97690.00;;;12.10
20848;BMP180;10584;50.854;12.902;2022-09-09T04:15:29;97687.00;;;12.10
20848;BMP180;10584;50.854;12.902;2022-09-09T04:20:33;97687.00;;;12.10
20848;BMP180;10584;50.854;12.902;2022-09-09T04:25:37;97685.00;;;12.10
20848;BMP180;10584;50.854;12.902;2022-09-09T04:30:41;97672.00;;;12.10
20848;BMP180;10584;50.854;12.902;2022-09-09T04:35:46;97677.00;;;12.20
20848;BMP180;10584;50.854;12.902;2022-09-09T04:40:52;97700.00;;;12.20
20848;BMP180;10584;50.854;12.902;2022-09-09T04:45:57;97704.00;;;12.20
20848;BMP180;10584;50.854;12.902;2022-09-09T04:51:04;97700.00;;;12.10
20848;BMP180;10584;50.854;12.902;2022-09-09T04:56:14;97708.00;;;12.20
20848;BMP180;10584;50.854;12.902;2022-09-09T05:01:23;97695.00;;;12.20
20848;BMP180;10584;50.854;12.902;2022-09-09T05:06:29;97712.00;;;12.20
20848;BMP180;10584;50.854;12.902;2022-09-09T05:11:35;97708.00;;;12.30
20848;BMP180;10584;50.854;12.902;2022-09-09T05:17:14;97712.00;;;12.30
20848;BMP180;10584;50.854;12.902;2022-09-09T05:22:20;97716.00;;;12.30
20848;BMP180;10584;50.854;12.902;2022-09-09T05:27:25;97715.00;;;12.30
20848;BMP180;10584;50.854;12.902;2022-09-09T05:32:30;97717.00;;;12.40
20848;BMP180;10584;50.854;12.902;2022-09-09T05:37:36;97721.00;;;12.50
20848;BMP180;10584;50.854;12.902;2022-09-09T05:42:40;97717.00;;;12.50
20848;BMP180;10584;50.854;12.902;2022-09-09T05:47:44;97718.00;;;12.60
20848;BMP180;10584;50.854;12.902;2022-09-09T05:52:49;97727.00;;;12.70
20848;BMP180;10584;50.854;12.902;2022-09-09T05:57:52;97725.00;;;12.80
20848;BMP180;10584;50.854;12.902;2022-09-09T06:02:55;97727.00;;;13.00
20848;BMP180;10584;50.854;12.902;2022-09-09T06:08:00;97737.00;;;13.20
20848;BMP180;10584;50.854;12.902;2022-09-09T06:13:03;97741.00;;;13.40
20848;BMP180;10584;50.854;12.902;2022-09-09T06:18:07;97744.00;;;13.60
20848;BMP180;10584;50.854;12.902;2022-09-09T06:23:10;97736.00;;;13.80
20848;BMP180;10584;50.854;12.902;2022-09-09T06:28:13;97733.00;;;14.00
20848;BMP180;10584;50.854;12.902;2022-09-09T06:33:16;97736.00;;;14.20
20848;BMP180;10584;50.854;12.902;2022-09-09T06:38:19;97737.00;;;14.40
20848;BMP180;10584;50.854;12.902;2022-09-09T06:43:23;97738.00;;;14.60
20848;BMP180;10584;50.854;12.902;2022-09-09T06:48:27;97732.00;;;14.70
20848;BMP180;10584;50.854;12.902;2022-09-09T06:53:35;97731.00;;;14.80
20848;BMP180;10584;50.854;12.902;2022-09-09T06:58:40;97735.00;;;15.00
20848;BMP180;10584;50.854;12.902;2022-09-09T07:03:57;97736.00;;;15.00
20848;BMP180;10584;50.854;12.902;2022-09-09T07:09:07;97742.00;;;15.10
20848;BMP180;10584;50.854;12.902;2022-09-09T07:14:12;97734.00;;;15.20
20848;BMP180;10584;50.854;12.902;2022-09-09T07:19:20;97743.00;;;15.40
20848;BMP180;10584;50.854;12.902;2022-09-09T07:24:26;97747.00;;;15.50
20848;BMP180;10584;50.854;12.902;2022-09-09T07:29:33;97754.00;;;15.60
20848;BMP180;10584;50.854;12.902;2022-09-09T07:34:37;97757.00;;;15.60
20848;BMP180;10584;50.854;12.902;2022-09-09T07:39:41;97753.00;;;15.80
20848;BMP180;10584;50.854;12.902;2022-09-09T07:44:44;97762.00;;;16.00
20848;BMP180;10584;50.854;12.902;2022-09-09T07:49:50;97769.00;;;16.10
20848;BMP180;10584;50.854;12.902;2022-09-09T07:54:59;97777.00;;;16.30
20848;BMP180;10584;50.854;12.902;2022-09-09T08:00:06;97776.00;;;16.50
20848;BMP180;10584;50.854;12.902;2022-09-09T08:05:18;97774.00;;;16.60
20848;BMP180;10584;50.854;12.902;2022-09-09T08:10:23;97779.00;;;16.80
20848;BMP180;10584;50.854;12.902;2022-09-09T08:15:28;97769.00;;;17.00
20848;BMP180;10584;50.854;12.902;2022-09-09T08:20:35;97779.00;;;17.20
20848;BMP180;10584;50.854;12.902;2022-09-09T08:25:38;97770.00;;;17.30
20848;BMP180;10584;50.854;12.902;2022-09-09T08:30:41;97775.00;;;17.50
20848;BMP180;10584;50.854;12.902;2022-09-09T08:35:51;97769.00;;;17.70
20848;BMP180;10584;50.854;12.902;2022-09-09T08:41:26;97780.00;;;17.90
20848;BMP180;10584;50.854;12.902;2022-09-09T08:46:39;97777.00;;;18.10
20848;BMP180;10584;50.854;12.902;2022-09-09T08:51:48;97774.00;;;18.50
20848;BMP180;10584;50.854;12.902;2022-09-09T08:56:52;97778.00;;;19.20
20848;BMP180;10584;50.854;12.902;2022-09-09T09:12:59;97774.00;;;19.70
20848;BMP180;10584;50.854;12.902;2022-09-09T09:18:07;97773.00;;;20.00
20848;BMP180;10584;50.854;12.902;2022-09-09T09:23:24;97772.00;;;20.30
20848;BMP180;10584;50.854;12.902;2022-09-09T09:28:33;97774.00;;;20.20
20848;BMP180;10584;50.854;12.902;2022-09-09T09:33:49;97768.00;;;20.50
20848;BMP180;10584;50.854;12.902;2022-09-09T09:38:55;97773.00;;;20.50
20848;BMP180;10584;50.854;12.902;2022-09-09T09:44:29;97772.00;;;20.40
20848;BMP180;10584;50.854;12.902;2022-09-09T09:49:50;97779.00;;;20.90
20848;BMP180;10584;50.854;12.902;2022-09-09T09:54:56;97772.00;;;21.30
20848;BMP180;10584;50.854;12.902;2022-09-09T10:00:20;97780.00;;;21.30
20848;BMP180;10584;50.854;12.902;2022-09-09T10:05:36;97767.00;;;21.20
20848;BMP180;10584;50.854;12.902;2022-09-09T10:10:56;97761.00;;;21.50
20848;BMP180;10584;50.854;12.902;2022-09-09T10:43:24;97766.00;;;22.20
20848;BMP180;10584;50.854;12.902;2022-09-09T10:54:30;97766.00;;;22.50
20848;BMP180;10584;50.854;12.902;2022-09-09T10:59:47;97752.00;;;22.60
20848;BMP180;10584;50.854;12.902;2022-09-09T11:04:55;97767.00;;;23.00
20848;BMP180;10584;50.854;12.902;2022-09-09T11:10:05;97761.00;;;22.80
20848;BMP180;10584;50.854;12.902;2022-09-09T11:15:19;97759.00;;;23.00
20848;BMP180;10584;50.854;12.902;2022-09-09T11:20:24;97769.00;;;22.60
20848;BMP180;10584;50.854;12.902;2022-09-09T11:25:45;97770.00;;;22.60
20848;BMP180;10584;50.854;12.902;2022-09-09T11:36:06;97770.00;;;23.00
20848;BMP180;10584;50.854;12.902;2022-09-09T11:41:14;97758.00;;;22.80
20848;BMP180;10584;50.854;12.902;2022-09-09T11:46:33;97767.00;;;23.00
20848;BMP180;10584;50.854;12.902;2022-09-09T11:51:38;97770.00;;;22.60
20848;BMP180;10584;50.854;12.902;2022-09-09T11:56:45;97767.00;;;22.60
20848;BMP180;10584;50.854;12.902;2022-09-09T12:01:59;97762.00;;;22.70
20848;BMP180;10584;50.854;12.902;2022-09-09T12:17:50;97754.00;;;22.80
20848;BMP180;10584;50.854;12.902;2022-09-09T12:28:20;97744.00;;;22.90
20848;BMP180;10584;50.854;12.902;2022-09-09T12:33:25;97732.00;;;22.90
20848;BMP180;10584;50.854;12.902;2022-09-09T12:38:39;97719.00;;;23.50
20848;BMP180;10584;50.854;12.902;2022-09-09T12:43:42;97730.00;;;23.70
20848;BMP180;10584;50.854;12.902;2022-09-09T12:48:45;97718.00;;;23.80
20848;BMP180;10584;50.854;12.902;2022-09-09T12:53:49;97720.00;;;23.80
20848;BMP180;10584;50.854;12.902;2022-09-09T12:58:54;97725.00;;;23.90
20848;BMP180;10584;50.854;12.902;2022-09-09T13:03:58;97710.00;;;24.00
20848;BMP180;10584;50.854;12.902;2022-09-09T13:09:02;97713.00;;;24.10
20848;BMP180;10584;50.854;12.902;2022-09-09T13:14:05;97711.00;;;24.10
20848;BMP180;10584;50.854;12.902;2022-09-09T13:19:14;97717.00;;;24.30
20848;BMP180;10584;50.854;12.902;2022-09-09T13:24:30;97718.00;;;24.30
20848;BMP180;10584;50.854;12.902;2022-09-09T13:29:33;97729.00;;;23.80
20848;BMP180;10584;50.854;12.902;2022-09-09T13:34:37;97719.00;;;23.60
20848;BMP180;10584;50.854;12.902;2022-09-09T13:39:40;97713.00;;;23.40
20848;BMP180;10584;50.854;12.902;2022-09-09T13:44:56;97705.00;;;23.50
20848;BMP180;10584;50.854;12.902;2022-09-09T13:50:20;97704.00;;;23.60
20848;BMP180;10584;50.854;12.902;2022-09-09T13:55:27;97707.00;;;23.70
20848;BMP180;10584;50.854;12.902;2022-09-09T14:00:32;97691.00;;;23.90
20848;BMP180;10584;50.854;12.902;2022-09-09T14:05:35;97691.00;;;24.10
20848;BMP180;10584;50.854;12.902;2022-09-09T14:10:38;97682.00;;;24.20
20848;BMP180;10584;50.854;12.902;2022-09-09T14:15:41;97678.00;;;24.00
20848;BMP180;10584;50.854;12.902;2022-09-09T14:20:44;97691.00;;;23.90
20848;BMP180;10584;50.854;12.902;2022-09-09T14:25:47;97697.00;;;23.90
20848;BMP180;10584;50.854;12.902;2022-09-09T14:30:51;97698.00;;;23.80
20848;BMP180;10584;50.854;12.902;2022-09-09T14:35:59;97692.00;;;23.80
20848;BMP180;10584;50.854;12.902;2022-09-09T14:41:02;97696.00;;;23.70
20848;BMP180;10584;50.854;12.902;2022-09-09T14:46:07;97700.00;;;23.30
20848;BMP180;10584;50.854;12.902;2022-09-09T14:51:16;97707.00;;;22.90
20848;BMP180;10584;50.854;12.902;2022-09-09T14:56:21;97718.00;;;22.50
20848;BMP180;10584;50.854;12.902;2022-09-09T15:01:26;97729.00;;;22.40
20848;BMP180;10584;50.854;12.902;2022-09-09T15:06:34;97729.00;;;22.30
20848;BMP180;10584;50.854;12.902;2022-09-09T15:11:38;97737.00;;;22.10
20848;BMP180;10584;50.854;12.902;2022-09-09T15:16:41;97734.00;;;21.80
20848;BMP180;10584;50.854;12.902;2022-09-09T15:21:44;97733.00;;;21.50
20848;BMP180;10584;50.854;12.902;2022-09-09T15:26:47;97736.00;;;21.50
20848;BMP180;10584;50.854;12.902;2022-09-09T15:31:50;97731.00;;;21.10
20848;BMP180;10584;50.854;12.902;2022-09-09T15:36:53;97730.00;;;20.90
20848;BMP180;10584;50.854;12.902;2022-09-09T15:41:57;97731.00;;;20.80
20848;BMP180;10584;50.854;12.902;2022-09-09T15:47:00;97738.00;;;20.60
20848;BMP180;10584;50.854;12.902;2022-09-09T15:52:04;97726.00;;;20.60
20848;BMP180;10584;50.854;12.902;2022-09-09T15:57:10;97724.00;;;20.70
20848;BMP180;10584;50.854;12.902;2022-09-09T16:02:14;97718.00;;;20.70
20848;BMP180;10584;50.854;12.902;2022-09-09T16:07:17;97706.00;;;20.80
20848;BMP180;10584;50.854;12.902;2022-09-09T16:12:20;97717.00;;;20.80
20848;BMP180;10584;50.854;12.902;2022-09-09T16:17:23;97718.00;;;20.90
20848;BMP180;10584;50.854;12.902;2022-09-09T16:22:26;97717.00;;;20.80
20848;BMP180;10584;50.854;12.902;2022-09-09T16:27:30;97729.00;;;20.70
20848;BMP180;10584;50.854;12.902;2022-09-09T16:32:33;97726.00;;;20.80
20848;BMP180;10584;50.854;12.902;2022-09-09T16:37:37;97738.00;;;20.80
20848;BMP180;10584;50.854;12.902;2022-09-09T16:42:40;97740.00;;;20.60
20848;BMP180;10584;50.854;12.902;2022-09-09T16:47:43;97744.00;;;20.60
20848;BMP180;10584;50.854;12.902;2022-09-09T16:52:47;97751.00;;;20.10
20848;BMP180;10584;50.854;12.902;2022-09-09T16:57:50;97748.00;;;20.10
20848;BMP180;10584;50.854;12.902;2022-09-09T17:02:53;97752.00;;;19.60
20848;BMP180;10584;50.854;12.902;2022-09-09T17:07:56;97751.00;;;19.50
20848;BMP180;10584;50.854;12.902;2022-09-09T17:13:00;97761.00;;;19.20
20848;BMP180;10584;50.854;12.902;2022-09-09T17:18:04;97756.00;;;19.00
20848;BMP180;10584;50.854;12.902;2022-09-09T17:23:08;97751.00;;;19.00
20848;BMP180;10584;50.854;12.902;2022-09-09T17:28:11;97755.00;;;18.70
20848;BMP180;10584;50.854;12.902;2022-09-09T17:33:14;97743.00;;;18.80
20848;BMP180;10584;50.854;12.902;2022-09-09T17:38:18;97743.00;;;18.60
20848;BMP180;10584;50.854;12.902;2022-09-09T17:43:21;97744.00;;;18.30
20848;BMP180;10584;50.854;12.902;2022-09-09T17:48:24;97749.00;;;18.10
20848;BMP180;10584;50.854;12.902;2022-09-09T17:53:28;97757.00;;;18.00
20848;BMP180;10584;50.854;12.902;2022-09-09T17:58:31;97750.00;;;18.00
20848;BMP180;10584;50.854;12.902;2022-09-09T18:03:36;97743.00;;;17.80
20848;BMP180;10584;50.854;12.902;2022-09-09T18:08:40;97759.00;;;17.50
20848;BMP180;10584;50.854;12.902;2022-09-09T18:13:47;97753.00;;;17.50
20848;BMP180;10584;50.854;12.902;2022-09-09T18:18:50;97757.00;;;17.30
20848;BMP180;10584;50.854;12.902;2022-09-09T18:23:54;97759.00;;;17.20
20848;BMP180;10584;50.854;12.902;2022-09-09T18:28:59;97766.00;;;17.10
20848;BMP180;10584;50.854;12.902;2022-09-09T18:34:05;97761.00;;;16.90
20848;BMP180;10584;50.854;12.902;2022-09-09T18:39:12;97767.00;;;16.70
20848;BMP180;10584;50.854;12.902;2022-09-09T18:44:23;97767.00;;;16.50
20848;BMP180;10584;50.854;12.902;2022-09-09T18:49:28;97772.00;;;16.40
20848;BMP180;10584;50.854;12.902;2022-09-09T18:54:31;97762.00;;;16.20
20848;BMP180;10584;50.854;12.902;2022-09-09T18:59:37;97773.00;;;16.10
20848;BMP180;10584;50.854;12.902;2022-09-09T19:04:40;97782.00;;;15.90
20848;BMP180;10584;50.854;12.902;2022-09-09T19:09:43;97784.00;;;15.90
20848;BMP180;10584;50.854;12.902;2022-09-09T19:14:46;97801.00;;;15.90
20848;BMP180;10584;50.854;12.902;2022-09-09T19:19:49;97794.00;;;15.80
20848;BMP180;10584;50.854;12.902;2022-09-09T19:24:53;97796.00;;;15.70
20848;BMP180;10584;50.854;12.902;2022-09-09T19:29:57;97795.00;;;15.60
20848;BMP180;10584;50.854;12.902;2022-09-09T19:35:00;97814.00;;;15.50
20848;BMP180;10584;50.854;12.902;2022-09-09T19:40:04;97819.00;;;15.50
20848;BMP180;10584;50.854;12.902;2022-09-09T19:45:09;97815.00;;;15.40
20848;BMP180;10584;50.854;12.902;2022-09-09T19:50:12;97813.00;;;15.40
20848;BMP180;10584;50.854;12.902;2022-09-09T19:55:15;97802.00;;;15.30
20848;BMP180;10584;50.854;12.902;2022-09-09T20:00:18;97803.00;;;15.30
20848;BMP180;10584;50.854;12.902;2022-09-09T20:05:21;97808.00;;;15.30
20848;BMP180;10584;50.854;12.902;2022-09-09T20:10:25;97814.00;;;15.20
20848;BMP180;10584;50.854;12.902;2022-09-09T20:15:28;97821.00;;;15.20
20848;BMP180;10584;50.854;12.902;2022-09-09T20:20:31;97827.00;;;15.20
20848;BMP180;10584;50.854;12.902;2022-09-09T20:25:38;97836.00;;;15.10
20848;BMP180;10584;50.854;12.902;2022-09-09T20:30:41;97841.00;;;15.20
20848;BMP180;10584;50.854;12.902;2022-09-09T20:35:44;97847.00;;;15.20
20848;BMP180;10584;50.854;12.902;2022-09-09T20:40:47;97846.00;;;15.20
20848;BMP180;10584;50.854;12.902;2022-09-09T20:45:50;97851.00;;;15.30
20848;BMP180;10584;50.854;12.902;2022-09-09T20:50:55;97851.00;;;15.30
20848;BMP180;10584;50.854;12.902;2022-09-09T20:56:00;97850.00;;;15.30
20848;BMP180;10584;50.854;12.902;2022-09-09T21:01:04;97852.00;;;15.20
20848;BMP180;10584;50.854;12.902;2022-09-09T21:06:07;97851.00;;;15.20
20848;BMP180;10584;50.854;12.902;2022-09-09T21:11:11;97839.00;;;15.30
20848;BMP180;10584;50.854;12.902;2022-09-09T21:16:17;97846.00;;;15.30
20848;BMP180;10584;50.854;12.902;2022-09-09T21:21:21;97843.00;;;15.20
20848;BMP180;10584;50.854;12.902;2022-09-09T21:26:25;97840.00;;;15.10
20848;BMP180;10584;50.854;12.902;2022-09-09T21:31:28;97838.00;;;15.10
20848;BMP180;10584;50.854;12.902;2022-09-09T21:36:31;97839.00;;;15.10
20848;BMP180;10584;50.854;12.902;2022-09-09T21:41:35;97841.00;;;15.10
20848;BMP180;10584;50.854;12.902;2022-09-09T21:46:39;97845.00;;;15.10
20848;BMP180;10584;50.854;12.902;2022-09-09T21:51:43;97844.00;;;15.10
20848;BMP180;10584;50.854;12.902;2022-09-09T21:56:49;97838.00;;;15.00
20848;BMP180;10584;50.854;12.902;2022-09-09T22:01:53;97844.00;;;15.00
20848;BMP180;10584;50.854;12.902;2022-09-09T22:06:57;97847.00;;;15.00
20848;BMP180;10584;50.854;12.902;2022-09-09T22:11:59;97841.00;;;15.10
20848;BMP180;10584;50.854;12.902;2022-09-09T22:17:03;97835.00;;;15.00
20848;BMP180;10584;50.854;12.902;2022-09-09T22:22:06;97831.00;;;15.00
20848;BMP180;10584;50.854;12.902;2022-09-09T22:27:10;97824.00;;;15.00
20848;BMP180;10584;50.854;12.902;2022-09-09T22:32:13;97823.00;;;15.00
20848;BMP180;10584;50.854;12.902;2022-09-09T22:37:17;97825.00;;;15.00
20848;BMP180;10584;50.854;12.902;2022-09-09T22:42:20;97827.00;;;15.00
20848;BMP180;10584;50.854;12.902;2022-09-09T22:47:24;97825.00;;;14.90
20848;BMP180;10584;50.854;12.902;2022-09-09T22:52:28;97818.00;;;14.90
20848;BMP180;10584;50.854;12.902;2022-09-09T22:57:33;97816.00;;;14.80
20848;BMP180;10584;50.854;12.902;2022-09-09T23:02:36;97808.00;;;14.80
20848;BMP180;10584;50.854;12.902;2022-09-09T23:07:42;97803.00;;;14.80
20848;BMP180;10584;50.854;12.902;2022-09-09T23:12:45;97804.00;;;14.80
20848;BMP180;10584;50.854;12.902;2022-09-09T23:17:48;97810.00;;;14.60
20848;BMP180;10584;50.854;12.902;2022-09-09T23:22:53;97806.00;;;14.60
20848;BMP180;10584;50.854;12.902;2022-09-09T23:27:58;97807.00;;;14.50
20848;BMP180;10584;50.854;12.902;2022-09-09T23:33:01;97817.00;;;14.40
20848;BMP180;10584;50.854;12.902;2022-09-09T23:38:04;97811.00;;;14.50
20848;BMP180;10584;50.854;12.902;2022-09-09T23:43:07;97809.00;;;14.40
20848;BMP180;10584;50.854;12.902;2022-09-09T23:48:10;97803.00;;;14.40
20848;BMP180;10584;50.854;12.902;2022-09-09T23:53:14;97801.00;;;14.40
20848;BMP180;10584;50.854;12.902;2022-09-09T23:58:17;97811.00;;;14.20
